22CD weather

Platte Valley Medical Center Heliport
Brighton, Colorado, United States

Public forecast

Using degrees Fahrenheit for public forecast. Weather courtesy of forecast.io.

METAR (pilot weather report)

Closest report is Denver International Airport, 7.4 nm (13.8 km) SE. Retrieved 2019/04/21 16:53 UTC (49 minutes ago):

KDEN 211653Z 31007KT 10SM FEW070 FEW110 FEW200 19/02 A2983 RMK AO2 SLP036 TCU OMTNS DSNT SW-W T01890017

TAF (pilot weather forecast)

Closest forecast is Denver International Airport, 7.4 nm (13.8 km) SE. Retrieved 2019/04/21 12:39 UTC (5 hours ago):

TAF KDEN 211137Z 2112/2218 34010KT P6SM VCSH SCT070 BKN120 TEMPO 2114/2117 FEW080 SCT150 FM211700 03012KT P6SM SCT060 BKN100 FM211900 03014G24KT P6SM BKN060 OVC100 TEMPO 2119/2122 -SHRA BKN050 FM212200 35018G28KT P6SM -SHRA SCT015 BKN035 PROB30 2122/2202 -TSRA BKN025CB FM220200 01014G22KT P6SM -SHRA BKN015 OVC025 FM220700 03012KT 5SM -SHRA BR BKN009 OVC018 FM221500 05010KT P6SM SCT007 BKN015 OVC025